Time;durP1;ratioP1;P1;durP2;ratioP2;P2;SDS_P1;SDS_P2;PMS_P1;PMS_P2;Temp;Humidity;BMP_temperature;BMP_pressure;BME280_temperature;BME280_humidity;BME280_pressure;Samples;Min_cycle;Max_cycle;Signal;HPM_P1;HPM_P2
2024/02/07 00:02:25;;;;;;;8.38;2.22;;;7.10;99.90;;;;;;6202811;23;20024;-84
2024/02/07 00:04:54;;;;;;;8.00;2.17;;;7.00;99.90;;;;;;6203203;23;20093;-80
2024/02/07 00:07:23;;;;;;;6.65;2.00;;;7.00;99.90;;;;;;6202668;23;20343;-81
2024/02/07 00:09:51;;;;;;;6.22;2.53;;;7.00;99.90;;;;;;6199090;23;20174;-82
2024/02/07 00:12:20;;;;;;;6.25;2.08;;;6.90;99.90;;;;;;6200366;23;20021;-82
2024/02/07 00:14:48;;;;;;;5.70;2.35;;;6.90;99.90;;;;;;6204606;23;20020;-83
2024/02/07 00:17:18;;;;;;;7.65;2.90;;;7.00;99.90;;;;;;6230772;23;20016;-82
2024/02/07 00:19:47;;;;;;;5.28;1.80;;;5.60;99.90;;;;;;6203316;23;20020;-83
2024/02/07 00:22:15;;;;;;;5.22;1.92;;;6.80;99.90;;;;;;6229146;23;20020;-83
2024/02/07 00:24:44;;;;;;;5.47;2.00;;;6.80;99.90;;;;;;6205404;23;20024;-83
2024/02/07 00:27:13;;;;;;;5.13;2.05;;;6.80;99.90;;;;;;6202569;23;20024;-82
2024/02/07 00:29:41;;;;;;;7.45;2.45;;;6.70;99.90;;;;;;6201611;23;20048;-82
2024/02/07 00:32:09;;;;;;;6.63;2.25;;;6.70;99.90;;;;;;6202565;23;20025;-82
2024/02/07 00:34:39;;;;;;;5.78;1.77;;;6.70;99.90;;;;;;6203344;23;20038;-81
2024/02/07 00:37:08;;;;;;;5.60;1.77;;;6.80;99.90;;;;;;6202981;23;20016;-81
2024/02/07 00:39:37;;;;;;;5.38;1.80;;;6.70;99.90;;;;;;6204116;23;20028;-82
2024/02/07 00:42:06;;;;;;;4.55;1.55;;;6.70;99.90;;;;;;6202468;23;20081;-82
2024/02/07 00:44:34;;;;;;;3.40;1.45;;;6.70;99.90;;;;;;6197232;23;20028;-83
2024/02/07 00:47:03;;;;;;;4.43;2.00;;;6.70;99.90;;;;;;6193712;23;20076;-81
2024/02/07 00:49:32;;;;;;;4.25;1.58;;;6.60;99.90;;;;;;6199809;23;20111;-81
2024/02/07 00:52:03;;;;;;;5.50;1.20;;;6.60;99.90;;;;;;6201301;23;20370;-82
2024/02/07 00:54:31;;;;;;;3.88;1.25;;;6.40;99.90;;;;;;6203316;23;20020;-82
2024/02/07 00:57:00;;;;;;;4.47;1.52;;;5.90;99.90;;;;;;6202365;23;20023;-83
2024/02/07 00:59:29;;;;;;;5.72;1.50;;;6.50;99.90;;;;;;6199071;23;20039;-81
2024/02/07 01:01:57;;;;;;;5.15;1.20;;;6.60;99.90;;;;;;6227646;23;20021;-83
2024/02/07 01:04:26;;;;;;;6.00;1.08;;;6.60;99.90;;;;;;6199493;23;20469;-82
2024/02/07 01:06:55;;;;;;;8.52;0.90;;;6.60;99.90;;;;;;6226349;23;20024;-85
2024/02/07 01:09:26;;;;;;;5.50;1.33;;;6.60;99.90;;;;;;6202474;23;20020;-83
2024/02/07 01:11:55;;;;;;;4.15;1.30;;;6.50;99.90;;;;;;6201679;23;20020;-83
2024/02/07 01:14:23;;;;;;;7.38;1.40;;;6.50;99.90;;;;;;6201671;23;20020;-83
2024/02/07 01:16:52;;;;;;;4.32;1.02;;;6.50;99.90;;;;;;6201317;23;20051;-83
2024/02/07 01:19:21;;;;;;;3.63;1.25;;;6.50;99.90;;;;;;6228496;23;20017;-83
2024/02/07 01:21:49;;;;;;;5.05;1.23;;;6.50;99.90;;;;;;6203108;23;20016;-82
2024/02/07 01:24:19;;;;;;;5.20;1.08;;;6.50;99.90;;;;;;6228446;23;20021;-82
2024/02/07 01:26:49;;;;;;;5.47;1.55;;;6.40;99.90;;;;;;6201907;23;20047;-82
2024/02/07 01:29:17;;;;;;;3.53;1.20;;;6.40;99.90;;;;;;6202045;23;20074;-82
2024/02/07 01:31:46;;;;;;;2.85;1.00;;;6.40;99.90;;;;;;6202309;23;20068;-83
2024/02/07 01:34:16;;;;;;;7.60;1.33;;;5.90;99.90;;;;;;6229727;23;20016;-83
2024/02/07 01:36:45;;;;;;;2.67;0.75;;;6.30;99.90;;;;;;6203300;23;20028;-82
2024/02/07 01:39:16;;;;;;;5.38;1.10;;;6.30;99.90;;;;;;6205483;23;20544;-82
2024/02/07 01:42:01;;;;;;;4.70;1.52;;;6.40;99.90;;;;;;6229336;23;20067;-82
2024/02/07 01:44:31;;;;;;;5.32;1.40;;;5.00;99.90;;;;;;6202272;23;20096;-81
2024/02/07 01:47:14;;;;;;;2.97;1.05;;;6.20;99.90;;;;;;6203012;23;20032;-80
2024/02/07 01:49:46;;;;;;;3.90;1.33;;;6.20;99.90;;;;;;6203711;23;20026;-81
2024/02/07 01:52:15;;;;;;;4.78;1.65;;;6.20;99.90;;;;;;6205195;23;20049;-81
2024/02/07 01:54:44;;;;;;;5.05;1.27;;;6.00;99.90;;;;;;6188773;23;20140;-79
2024/02/07 01:57:13;;;;;;;6.15;1.35;;;6.00;99.90;;;;;;6191291;23;20029;-79
2024/02/07 01:59:43;;;;;;;6.93;2.25;;;6.10;99.90;;;;;;6191639;23;20362;-78
2024/02/07 02:02:13;;;;;;;5.85;1.55;;;6.00;99.90;;;;;;6189860;23;20017;-79
2024/02/07 02:04:43;;;;;;;5.75;1.40;;;6.00;99.90;;;;;;6188478;23;20021;-78
2024/02/07 02:07:12;;;;;;;7.53;1.63;;;6.10;99.90;;;;;;6191484;23;20028;-79
2024/02/07 02:09:41;;;;;;;5.35;1.55;;;6.00;99.90;;;;;;6190371;23;20419;-78
2024/02/07 02:12:11;;;;;;;4.22;1.67;;;6.00;99.90;;;;;;6189159;23;20029;-78
2024/02/07 02:14:40;;;;;;;5.22;1.70;;;6.00;99.90;;;;;;6190858;23;20055;-78
2024/02/07 02:17:10;;;;;;;3.40;1.08;;;6.00;99.90;;;;;;6195097;23;20053;-79
2024/02/07 02:19:38;;;;;;;5.93;1.50;;;5.90;99.90;;;;;;6195481;23;20116;-79
2024/02/07 02:22:23;;;;;;;11.18;2.08;;;5.80;99.90;;;;;;6193994;23;20052;-79
2024/02/07 02:25:07;;;;;;;4.43;1.60;;;5.80;99.90;;;;;;6196048;23;20021;-79
2024/02/07 02:27:51;;;;;;;5.07;1.33;;;5.70;99.90;;;;;;6194863;23;20084;-79
2024/02/07 02:30:33;;;;;;;4.50;1.63;;;5.70;99.90;;;;;;6195430;23;20024;-79
2024/02/07 02:33:08;;;;;;;5.30;1.50;;;5.60;99.90;;;;;;6219634;23;20020;-78
2024/02/07 02:35:41;;;;;;;4.13;1.77;;;5.70;99.90;;;;;;6194349;23;20050;-79
2024/02/07 02:38:09;;;;;;;7.05;2.08;;;5.70;99.90;;;;;;6221726;23;20059;-79
2024/02/07 02:40:38;;;;;;;9.30;2.60;;;5.70;99.90;;;;;;6193788;23;20063;-79
2024/02/07 02:43:06;;;;;;;5.95;2.00;;;5.60;99.90;;;;;;6193279;23;20088;-79
2024/02/07 02:45:36;;;;;;;7.32;1.95;;;5.60;99.90;;;;;;6190281;23;20140;-78
2024/02/07 02:48:05;;;;;;;9.55;2.20;;;5.60;99.90;;;;;;6191093;23;20107;-78
2024/02/07 02:50:37;;;;;;;6.25;1.95;;;5.60;99.90;;;;;;6194484;23;20083;-78
2024/02/07 02:53:06;;;;;;;8.00;2.38;;;5.60;99.90;;;;;;6220377;23;20016;-78
2024/02/07 02:55:35;;;;;;;7.47;2.30;;;5.60;99.90;;;;;;6222774;23;20027;-79
2024/02/07 02:58:04;;;;;;;5.63;2.28;;;5.50;99.90;;;;;;6197042;23;20017;-79
2024/02/07 03:00:32;;;;;;;6.63;2.13;;;5.50;99.90;;;;;;6221523;23;20021;-79
2024/02/07 03:03:03;;;;;;;6.82;2.63;;;5.40;99.90;;;;;;6194182;23;20127;-79
2024/02/07 03:05:56;;;;;;;5.32;2.45;;;5.40;99.90;;;;;;6201129;23;20084;-82
2024/02/07 03:08:42;;;;;;;7.10;2.08;;;5.90;99.90;;;;;;6234474;23;20013;-81
2024/02/07 03:11:11;;;;;;;11.18;2.40;;;5.50;99.90;;;;;;6209640;23;20017;-82
2024/02/07 03:13:40;;;;;;;8.80;2.35;;;4.50;99.90;;;;;;6207665;23;20035;-81
2024/02/07 03:16:12;;;;;;;4.97;2.20;;;5.40;99.90;;;;;;6208574;23;20031;-82
2024/02/07 03:18:42;;;;;;;6.75;2.28;;;5.40;99.90;;;;;;6234959;23;20036;-82
2024/02/07 03:21:11;;;;;;;5.07;2.15;;;5.40;99.90;;;;;;6233387;23;20084;-81
2024/02/07 03:23:41;;;;;;;4.22;1.90;;;5.30;99.90;;;;;;6206971;23;20024;-81
2024/02/07 03:26:12;;;;;;;6.03;2.47;;;5.30;99.90;;;;;;6208256;23;20092;-81
2024/02/07 03:28:41;;;;;;;6.40;1.95;;;5.30;99.90;;;;;;6235873;23;20021;-81
2024/02/07 03:31:10;;;;;;;7.90;2.72;;;5.30;99.90;;;;;;6208950;23;20020;-82
2024/02/07 03:33:39;;;;;;;7.57;2.33;;;5.30;99.90;;;;;;6209216;23;20442;-82
2024/02/07 03:36:10;;;;;;;6.38;2.25;;;5.30;99.90;;;;;;6208695;23;20012;-81
2024/02/07 03:38:38;;;;;;;7.32;2.33;;;5.20;99.90;;;;;;6207797;23;20023;-81
2024/02/07 03:41:09;;;;;;;7.40;2.25;;;5.30;99.90;;;;;;6206414;23;20044;-81
2024/02/07 03:43:39;;;;;;;7.47;2.42;;;5.20;99.90;;;;;;6209851;23;20024;-82
2024/02/07 03:46:08;;;;;;;6.28;2.53;;;5.20;99.90;;;;;;6209610;23;20031;-81
2024/02/07 03:48:41;;;;;;;7.22;2.65;;;5.20;99.90;;;;;;6208832;23;20470;-81
2024/02/07 03:51:15;;;;;;;8.40;2.20;;;5.20;99.90;;;;;;6209998;23;20032;-82
2024/02/07 03:53:44;;;;;;;5.63;2.08;;;5.00;99.90;;;;;;6203995;23;20040;-81
2024/02/07 03:56:13;;;;;;;9.65;2.45;;;5.40;99.90;;;;;;6204931;23;20348;-80
2024/02/07 03:58:42;;;;;;;7.75;3.13;;;5.20;99.90;;;;;;6210103;23;20016;-81
2024/02/07 04:01:15;;;;;;;6.22;2.55;;;5.20;99.90;;;;;;6208969;23;20024;-82
2024/02/07 04:03:46;;;;;;;;;;;5.10;99.90;;;;;;6210372;23;20079;-82
2024/02/07 04:06:16;;;;;;;6.82;2.55;;;5.20;99.90;;;;;;6208115;23;19994;-81
2024/02/07 04:08:45;;;;;;;8.13;3.22;;;5.00;99.90;;;;;;6196334;23;20350;-82
2024/02/07 05:17:09;;;;;;;8.13;3.20;;;4.40;99.90;;;;;;6187765;23;20311;-77
2024/02/07 05:19:37;;;;;;;10.07;3.67;;;4.40;99.90;;;;;;6187985;23;20024;-77
2024/02/07 05:22:06;;;;;;;10.75;3.30;;;4.30;99.90;;;;;;6186359;23;20027;-77
2024/02/07 05:24:35;;;;;;;10.30;3.35;;;4.30;99.90;;;;;;6216021;23;20066;-80
2024/02/07 05:27:07;;;;;;;8.18;3.47;;;4.10;99.90;;;;;;6213140;23;20011;-81
2024/02/07 05:29:36;;;;;;;12.10;3.57;;;4.20;99.90;;;;;;6213825;23;20048;-80
2024/02/07 05:32:05;;;;;;;11.70;4.82;;;4.20;99.90;;;;;;6212809;23;20048;-81
2024/02/07 05:34:34;;;;;;;9.13;4.68;;;4.20;99.90;;;;;;6239555;23;20008;-80
2024/02/07 05:37:03;;;;;;;10.93;4.93;;;4.30;99.90;;;;;;6213340;23;20026;-81
2024/02/07 05:39:35;;;;;;;13.00;5.40;;;4.90;99.90;;;;;;6213400;23;20035;-81
2024/02/07 05:42:05;;;;;;;11.13;4.63;;;4.30;99.90;;;;;;6214386;23;20065;-80
2024/02/07 05:44:34;;;;;;;10.05;4.60;;;4.20;99.90;;;;;;6213712;23;20021;-79
2024/02/07 05:47:03;;;;;;;9.13;4.47;;;4.10;99.90;;;;;;6214094;23;20021;-80
2024/02/07 05:49:32;;;;;;;10.85;4.20;;;4.10;99.90;;;;;;6212231;23;20031;-80
2024/02/07 05:52:01;;;;;;;10.68;3.90;;;4.80;99.90;;;;;;6213189;23;20005;-80
2024/02/07 05:54:31;;;;;;;15.40;4.45;;;4.00;99.90;;;;;;6214368;23;20352;-80
2024/02/07 05:56:59;;;;;;;11.05;4.60;;;4.00;99.90;;;;;;6239209;23;20091;-80
2024/02/07 05:59:29;;;;;;;15.98;5.50;;;4.00;99.90;;;;;;6212516;23;20005;-81
2024/02/07 06:01:58;;;;;;;15.93;6.22;;;5.00;99.90;;;;;;6213376;23;20012;-82
2024/02/07 06:04:27;;;;;;;15.25;6.88;;;4.00;99.90;;;;;;6213300;23;20004;-80
2024/02/07 06:06:56;;;;;;;14.05;5.05;;;3.90;99.90;;;;;;6213798;23;20040;-80
2024/02/07 06:09:25;;;;;;;13.93;5.13;;;4.00;99.90;;;;;;6214305;23;20032;-80
2024/02/07 06:12:49;;;;;;;14.85;4.90;;;4.10;99.90;;;;;;6212553;23;20040;-87
2024/02/07 06:19:25;;;;;;;16.63;5.32;;;3.90;99.90;;;;;;6239847;23;20041;-88
2024/02/07 06:29:57;;;;;;;35.13;12.45;;;3.80;99.90;;;;;;6034125;23;20064;-87
2024/02/07 06:33:12;;;;;;;18.27;7.75;;;3.70;99.90;;;;;;6009993;23;20028;-88
2024/02/07 06:40:27;;;;;;;15.48;6.00;;;3.90;99.90;;;;;;5896415;24;20029;-80
2024/02/07 06:43:03;;;;;;;19.85;6.38;;;4.00;99.90;;;;;;5792686;24;20027;-80
2024/02/07 06:46:19;;;;;;;22.77;7.90;;;4.00;99.90;;;;;;5816199;24;20042;-81
2024/02/07 06:52:16;;;;;;;14.20;5.95;;;3.50;99.90;;;;;;5797027;24;20023;-81
2024/02/07 07:06:47;;;;;;;36.22;15.15;;;4.20;99.90;;;;;;5843879;24;20074;-81
2024/02/07 07:09:28;;;;;;;27.73;11.45;;;4.30;99.90;;;;;;5871415;24;20022;-82
2024/02/07 07:12:29;;;;;;;29.67;13.30;;;4.30;99.90;;;;;;5913219;24;20014;-82
2024/02/07 07:18:14;;;;;;;30.10;12.27;;;4.50;99.90;;;;;;5923675;24;20031;-81
2024/02/07 07:21:13;;;;;;;32.72;11.35;;;4.60;99.90;;;;;;5952936;24;20028;-81
2024/02/07 07:23:52;;;;;;;26.60;10.75;;;4.90;99.90;;;;;;5987071;24;20016;-81
2024/02/07 07:26:32;;;;;;;22.83;9.15;;;4.70;99.90;;;;;;6018103;23;20046;-81
2024/02/07 07:29:10;;;;;;;27.23;10.23;;;4.70;99.90;;;;;;6038068;23;20035;-81
2024/02/07 07:31:42;;;;;;;18.95;8.95;;;4.80;99.90;;;;;;6039519;23;20029;-81
2024/02/07 07:34:25;;;;;;;20.13;8.38;;;4.90;99.90;;;;;;6038856;23;20015;-83
2024/02/07 07:37:02;;;;;;;23.25;9.55;;;4.90;99.90;;;;;;6061967;23;20019;-81
2024/02/07 07:39:33;;;;;;;28.10;12.07;;;4.90;99.90;;;;;;6072597;23;20027;-81
2024/02/07 07:42:24;;;;;;;22.40;8.27;;;5.00;99.90;;;;;;6148451;23;20018;-81
2024/02/07 07:44:57;;;;;;;27.95;11.73;;;4.70;99.90;;;;;;6147971;23;20018;-81
2024/02/07 07:47:34;;;;;;;39.53;16.75;;;4.40;99.90;;;;;;6152448;23;20021;-86
2024/02/07 07:50:14;;;;;;;40.22;14.88;;;5.20;99.90;;;;;;6137774;23;20032;-84
2024/02/07 07:52:53;;;;;;;30.98;12.30;;;5.20;99.90;;;;;;6183282;23;20017;-86
2024/02/07 07:55:23;;;;;;;31.63;11.77;;;5.40;99.90;;;;;;6195530;23;20048;-85
2024/02/07 07:57:55;;;;;;;32.22;12.85;;;5.40;99.90;;;;;;6212592;23;20024;-84
2024/02/07 08:00:27;;;;;;;34.75;13.90;;;5.50;99.90;;;;;;6212011;23;20017;-84
2024/02/07 08:02:56;;;;;;;31.98;12.00;;;5.60;99.90;;;;;;6238225;23;20112;-83
2024/02/07 08:05:34;;;;;;;31.42;10.75;;;5.60;99.90;;;;;;6237446;23;20024;-83
2024/02/07 08:08:07;;;;;;;34.08;13.13;;;5.60;99.90;;;;;;6234247;23;20028;-85
2024/02/07 08:10:39;;;;;;;49.30;17.42;;;5.70;99.90;;;;;;6237321;23;20029;-85
2024/02/07 08:13:09;;;;;;;36.43;14.87;;;5.80;99.90;;;;;;6236131;23;20048;-84
2024/02/07 08:15:38;;;;;;;35.85;13.40;;;5.80;99.90;;;;;;6236165;23;20090;-84
2024/02/07 08:18:15;;;;;;;96.88;30.50;;;5.90;99.90;;;;;;6236409;23;20028;-85
2024/02/07 08:20:47;;;;;;;36.38;15.30;;;6.00;99.90;;;;;;6209865;23;20080;-86
2024/02/07 08:23:30;;;;;;;31.35;12.45;;;6.10;99.90;;;;;;6234694;23;20048;-84
2024/02/07 08:25:59;;;;;;;39.05;14.23;;;6.20;99.90;;;;;;6233972;23;20043;-82
2024/02/07 08:28:29;;;;;;;37.35;13.43;;;6.20;99.90;;;;;;6233258;23;20031;-84
2024/02/07 08:31:11;;;;;;;32.10;13.48;;;6.30;99.90;;;;;;6232603;23;20056;-86
2024/02/07 08:33:45;;;;;;;42.83;16.60;;;6.40;99.90;;;;;;6232762;23;20021;-86
2024/02/07 08:36:21;;;;;;;38.72;15.70;;;6.40;99.90;;;;;;6232174;23;20024;-85
2024/02/07 08:38:53;;;;;;;42.25;15.48;;;6.50;99.90;;;;;;6233357;23;20032;-84
2024/02/07 08:41:22;;;;;;;39.97;16.85;;;6.70;99.90;;;;;;6230454;23;20027;-85
2024/02/07 08:43:51;;;;;;;40.97;15.77;;;6.70;99.90;;;;;;6204864;23;20056;-85
2024/02/07 08:46:49;;;;;;;40.30;15.90;;;6.70;99.90;;;;;;6231260;23;20102;-86
2024/02/07 08:49:34;;;;;;;43.25;15.35;;;6.10;99.90;;;;;;6231903;23;20029;-84
2024/02/07 08:52:08;;;;;;;39.08;14.95;;;6.90;99.90;;;;;;6203778;23;20024;-84
2024/02/07 08:54:42;;;;;;;39.33;15.38;;;6.60;99.90;;;;;;6230993;23;20024;-87
2024/02/07 08:57:10;;;;;;;40.67;15.13;;;7.10;99.90;;;;;;6230816;23;20032;-79
2024/02/07 08:59:41;;;;;;;44.17;16.08;;;7.20;99.90;;;;;;6231807;23;20036;-80
2024/02/07 09:02:13;;;;;;;34.35;14.45;;;7.20;99.90;;;;;;6229556;23;20024;-78
2024/02/07 09:04:42;;;;;;;43.58;16.85;;;7.40;99.90;;;;;;6226750;23;20044;-82
2024/02/07 09:07:13;;;;;;;37.08;14.73;;;7.50;99.90;;;;;;6228119;23;20025;-77
2024/02/07 09:09:42;;;;;;;41.83;16.80;;;7.60;99.90;;;;;;6226296;23;20032;-79
2024/02/07 09:12:11;;;;;;;41.40;16.15;;;7.70;99.90;;;;;;6231315;23;20031;-81
2024/02/07 09:14:39;;;;;;;37.75;14.07;;;7.90;99.90;;;;;;6224081;23;20347;-81
2024/02/07 09:17:14;;;;;;;37.60;14.82;;;8.00;99.90;;;;;;6229187;23;20028;-80
2024/02/07 09:19:48;;;;;;;41.80;17.15;;;8.10;99.90;;;;;;6231354;23;20095;-81
2024/02/07 09:22:29;;;;;;;35.30;15.15;;;8.20;99.90;;;;;;6224578;23;20462;-79
2024/02/07 09:25:01;;;;;;;38.78;16.33;;;8.20;99.90;;;;;;6230600;23;20347;-80
2024/02/07 09:27:41;;;;;;;37.08;14.98;;;8.40;99.90;;;;;;6230443;23;20020;-82
2024/02/07 09:30:14;;;;;;;39.30;15.05;;;8.40;99.90;;;;;;6228206;23;20028;-82
2024/02/07 09:33:03;;;;;;;42.33;16.10;;;8.50;99.90;;;;;;6228233;23;20028;-80
2024/02/07 09:35:31;;;;;;;37.50;14.85;;;8.60;99.90;;;;;;6226045;23;20028;-78
2024/02/07 09:38:07;;;;;;;39.35;15.48;;;8.70;99.90;;;;;;6224906;23;20028;-80
2024/02/07 09:40:38;;;;;;;38.17;15.25;;;8.80;99.90;;;;;;6226869;23;20024;-81
2024/02/07 09:43:07;;;;;;;37.03;15.02;;;8.90;99.90;;;;;;6224756;23;20382;-81
2024/02/07 09:45:38;;;;;;;35.08;13.63;;;8.90;99.90;;;;;;6222263;23;20064;-78
2024/02/07 09:48:18;;;;;;;35.25;15.25;;;8.90;99.90;;;;;;6229071;23;20079;-81
2024/02/07 09:50:50;;;;;;;37.42;15.00;;;9.10;99.90;;;;;;6227388;23;20025;-79
2024/02/07 09:53:29;;;;;;;33.58;14.23;;;9.20;99.90;;;;;;6225812;23;20044;-80
2024/02/07 09:56:06;;;;;;;35.35;14.48;;;9.20;99.90;;;;;;6226098;23;20048;-80
2024/02/07 09:58:38;;;;;;;43.30;14.50;;;9.30;99.90;;;;;;6225997;23;20032;-81
2024/02/07 10:01:12;;;;;;;32.25;12.68;;;9.40;99.90;;;;;;6221727;23;20111;-78
2024/02/07 10:03:50;;;;;;;35.08;14.43;;;9.50;99.90;;;;;;6224160;23;20021;-81
2024/02/07 10:06:26;;;;;;;37.50;15.52;;;9.60;99.90;;;;;;6200680;23;20045;-82
2024/02/07 10:08:59;;;;;;;34.80;14.50;;;9.70;99.90;;;;;;6202160;23;20024;-84
2024/02/07 10:11:34;;;;;;;35.25;13.88;;;9.90;99.90;;;;;;6204168;23;20036;-79
2024/02/07 10:14:07;;;;;;;34.30;13.85;;;10.00;99.90;;;;;;6203349;23;20017;-80
2024/02/07 10:21:05;;;;;;;32.85;14.40;;;10.10;99.90;;;;;;6176286;23;20066;-82
2024/02/07 10:27:53;;;;;;;46.08;16.27;;;10.40;99.90;;;;;;6113524;23;20049;-87
2024/02/07 10:30:32;;;;;;;35.55;13.90;;;10.40;99.90;;;;;;6116608;23;20022;-79
2024/02/07 10:33:03;;;;;;;33.50;14.27;;;10.50;99.90;;;;;;6108268;23;20041;-83
2024/02/07 10:35:32;;;;;;;34.63;14.13;;;10.40;99.90;;;;;;6112745;23;20053;-83
2024/02/07 10:38:07;;;;;;;36.92;15.00;;;10.60;99.90;;;;;;6117486;23;20022;-83
2024/02/07 10:40:40;;;;;;;38.60;16.88;;;10.70;99.90;;;;;;6139979;23;20038;-84
2024/02/07 10:43:11;;;;;;;34.28;13.88;;;10.80;99.90;;;;;;6139271;23;20463;-84
2024/02/07 10:45:41;;;;;;;35.45;15.77;;;10.90;99.90;;;;;;6139303;23;20021;-85
2024/02/07 10:48:18;;;;;;;35.28;15.00;;;10.70;99.90;;;;;;6112838;23;20674;-82
2024/02/07 10:50:57;;;;;;;39.45;16.45;;;10.40;99.90;;;;;;6133495;23;20068;-85
2024/02/07 10:53:38;;;;;;;30.45;13.65;;;10.80;99.90;;;;;;6150175;23;20017;-86
2024/02/07 10:56:27;;;;;;;32.28;12.60;;;11.10;99.90;;;;;;6169025;23;20056;-83
2024/02/07 10:59:04;;;;;;;30.58;13.25;;;11.70;99.90;;;;;;6122985;23;20021;-85
2024/02/07 11:01:34;;;;;;;30.73;12.55;;;11.20;99.90;;;;;;6175450;23;20053;-83
2024/02/07 11:04:06;;;;;;;32.85;12.38;;;10.80;99.90;;;;;;6174029;23;20056;-84
2024/02/07 11:06:37;;;;;;;27.48;10.65;;;11.50;99.90;;;;;;6170140;23;20506;-82
2024/02/07 11:09:58;;;;;;;28.40;12.38;;;11.50;99.90;;;;;;6148517;23;20045;-83
2024/02/07 11:12:33;;;;;;;24.70;11.15;;;11.60;99.90;;;;;;6172867;23;20028;-85
2024/02/07 11:15:28;;;;;;;26.33;12.00;;;11.60;99.90;;;;;;6150721;23;20017;-83
2024/02/07 11:17:58;;;;;;;;;;;11.70;99.90;;;;;;6109739;23;20026;-82
2024/02/07 11:20:29;;;;;;;23.67;10.10;;;11.50;99.90;;;;;;6083056;23;19928;-82
2024/02/07 11:23:26;;;;;;;25.65;12.43;;;11.60;99.90;;;;;;6083410;23;20050;-81
2024/02/07 11:26:10;;;;;;;31.02;11.38;;;11.30;99.90;;;;;;6087413;23;20024;-82
2024/02/07 11:28:45;;;;;;;24.00;10.35;;;11.90;99.90;;;;;;6001388;23;20027;-82
2024/02/07 11:31:25;;;;;;;27.58;12.13;;;12.10;99.90;;;;;;5968434;24;20088;-81
2024/02/07 11:34:21;;;;;;;27.23;10.57;;;12.50;99.90;;;;;;5835033;24;20030;-81
2024/02/07 11:37:20;;;;;;;23.40;10.48;;;11.50;99.90;;;;;;5880576;24;20025;-80
2024/02/07 11:40:05;;;;;;;23.60;10.45;;;12.50;99.90;;;;;;5939910;24;20072;-81
2024/02/07 11:42:38;;;;;;;22.02;9.95;;;12.70;99.90;;;;;;5941639;24;20051;-80
2024/02/07 11:45:16;;;;;;;20.73;9.10;;;12.70;99.90;;;;;;5941932;24;20039;-82
2024/02/07 11:48:05;;;;;;;21.98;9.45;;;12.80;99.90;;;;;;5943261;24;20017;-82
2024/02/07 11:50:52;;;;;;;21.60;10.13;;;12.80;99.90;;;;;;5944732;24;20092;-79
2024/02/07 11:53:30;;;;;;;21.73;9.85;;;12.70;99.90;;;;;;6040957;23;20030;-80
2024/02/07 11:56:12;;;;;;;22.77;10.43;;;12.90;99.90;;;;;;6072826;23;20079;-81
2024/02/07 11:58:53;;;;;;;22.35;9.70;;;13.10;99.90;;;;;;6072328;23;20042;-80
2024/02/07 12:01:27;;;;;;;19.02;8.95;;;13.30;99.90;;;;;;6085005;23;20065;-83
2024/02/07 12:04:16;;;;;;;17.55;8.02;;;13.30;99.90;;;;;;6087727;23;20018;-81
2024/02/07 12:10:04;;;;;;;21.88;8.48;;;13.40;99.90;;;;;;6143583;23;20057;-79
2024/02/07 12:16:54;;;;;;;19.65;7.82;;;13.50;99.50;;;;;;6050006;23;20006;-81
2024/02/07 12:20:16;;;;;;;20.48;8.20;;;13.40;99.30;;;;;;6086468;23;20124;-81
2024/02/07 12:23:04;;;;;;;18.60;7.45;;;13.20;99.90;;;;;;6066153;23;20003;-79
2024/02/07 12:25:40;;;;;;;15.10;6.95;;;12.90;99.90;;;;;;6089559;23;20022;-79
2024/02/07 12:29:14;;;;;;;16.77;6.70;;;12.80;98.90;;;;;;6041121;23;20023;-84
2024/02/07 12:38:38;;;;;;;17.75;7.93;;;12.40;99.90;;;;;;6007325;23;20040;-86
2024/02/07 12:41:29;;;;;;;16.30;7.25;;;12.30;99.90;;;;;;6009580;23;20027;-81
2024/02/07 12:44:23;;;;;;;14.15;6.78;;;12.30;99.90;;;;;;5998294;23;20492;-83
2024/02/07 12:46:57;;;;;;;19.73;9.75;;;12.30;99.90;;;;;;5966861;23;20015;-83
2024/02/07 12:50:12;;;;;;;17.33;7.45;;;12.30;99.90;;;;;;6012260;23;20030;-79
2024/02/07 12:54:17;;;;;;;13.57;6.30;;;11.60;99.90;;;;;;6014589;23;20132;-80
2024/02/07 12:57:26;;;;;;;18.60;5.53;;;12.30;99.90;;;;;;5958122;23;20096;-81
2024/02/07 13:01:05;;;;;;;13.02;5.07;;;12.30;99.70;;;;;;5897382;24;20030;-82
2024/02/07 13:07:56;;;;;;;12.23;5.10;;;12.30;99.30;;;;;;5896711;24;20030;-79
2024/02/07 13:15:44;;;;;;;12.13;4.63;;;12.20;98.90;;;;;;5857083;24;20014;-78
2024/02/07 13:18:59;;;;;;;12.18;5.10;;;12.30;99.30;;;;;;5817267;24;20030;-83
2024/02/07 13:21:36;;;;;;;15.02;4.32;;;12.50;98.90;;;;;;5837101;24;20027;-83
2024/02/07 13:35:29;;;;;;;11.27;4.45;;;12.70;98.60;;;;;;5711059;25;20029;-81
2024/02/07 13:38:00;;;;;;;11.10;5.45;;;12.80;98.00;;;;;;5692853;25;20506;-77
2024/02/07 13:40:34;;;;;;;15.07;4.28;;;12.80;97.80;;;;;;5693194;25;20461;-78
2024/02/07 13:43:06;;;;;;;10.77;5.38;;;12.80;98.10;;;;;;5690576;25;20029;-77
2024/02/07 13:45:36;;;;;;;10.05;4.60;;;12.80;98.10;;;;;;5714572;25;20033;-79
2024/02/07 13:48:28;;;;;;;11.15;4.40;;;12.80;98.10;;;;;;5740082;25;20035;-78
2024/02/07 13:50:59;;;;;;;10.80;4.63;;;12.80;98.20;;;;;;5741166;25;20463;-79
2024/02/07 13:53:30;;;;;;;9.20;4.25;;;12.80;97.70;;;;;;5737321;25;20111;-78
2024/02/07 13:56:00;;;;;;;9.63;4.10;;;12.80;98.00;;;;;;5740432;24;20036;-77
2024/02/07 13:58:29;;;;;;;6.05;3.13;;;12.80;97.60;;;;;;5764356;24;20031;-78
2024/02/07 14:00:59;;;;;;;9.77;4.47;;;12.80;96.90;;;;;;5779820;24;20110;-79
2024/02/07 14:06:40;;;;;;;7.95;3.42;;;12.80;96.70;;;;;;5927873;24;20029;-79
2024/02/07 14:09:08;;;;;;;6.57;2.80;;;12.70;96.70;;;;;;5969249;23;20048;-78
2024/02/07 14:11:40;;;;;;;12.45;7.05;;;12.70;96.90;;;;;;6017565;23;20109;-79
2024/02/07 14:14:09;;;;;;;29.13;11.90;;;12.60;97.20;;;;;;6093029;23;20022;-78
2024/02/07 14:16:38;;;;;;;69.70;21.70;;;12.50;97.80;;;;;;6068928;23;20066;-79
2024/02/07 14:19:08;;;;;;;51.47;18.65;;;12.60;97.70;;;;;;6091830;23;20026;-79
2024/02/07 14:21:38;;;;;;;17.73;6.47;;;12.60;97.30;;;;;;6094126;23;20026;-79
2024/02/07 14:24:08;;;;;;;10.07;4.25;;;12.60;97.30;;;;;;6095088;23;20030;-80
2024/02/07 14:26:46;;;;;;;10.52;4.75;;;12.70;96.90;;;;;;6068782;23;20109;-79
2024/02/07 14:29:41;;;;;;;23.02;10.02;;;12.60;96.90;;;;;;6071361;23;20030;-82
2024/02/07 14:32:09;;;;;;;25.48;10.93;;;12.60;97.20;;;;;;6071780;23;20022;-79
2024/02/07 14:34:39;;;;;;;20.33;9.52;;;12.50;97.50;;;;;;6071405;23;20054;-77
2024/02/07 14:37:10;;;;;;;12.30;6.85;;;12.50;97.30;;;;;;6104047;23;20022;-79
2024/02/07 14:39:39;;;;;;;10.20;4.75;;;12.40;97.80;;;;;;6159258;23;20104;-79
2024/02/07 14:42:13;;;;;;;8.68;4.68;;;12.20;97.40;;;;;;6159753;23;20033;-78
2024/02/07 14:44:42;;;;;;;7.95;3.45;;;12.20;97.50;;;;;;6160336;23;20083;-79
2024/02/07 14:47:15;;;;;;;10.30;5.28;;;12.30;98.00;;;;;;6160273;23;20017;-79
2024/02/07 14:49:45;;;;;;;11.02;5.28;;;12.10;98.40;;;;;;6160423;23;20508;-78
2024/02/07 14:52:13;;;;;;;16.02;7.72;;;12.10;98.60;;;;;;6160622;23;20021;-78
2024/02/07 14:54:44;;;;;;;11.10;4.43;;;12.10;98.80;;;;;;6160569;23;20477;-79
2024/02/07 14:57:12;;;;;;;9.73;4.38;;;12.00;99.00;;;;;;6159931;23;20392;-78
2024/02/07 14:59:42;;;;;;;16.88;6.53;;;11.90;99.60;;;;;;6184109;23;20343;-78
2024/02/07 15:02:13;;;;;;;9.73;4.75;;;12.00;99.80;;;;;;6190807;23;20028;-78
2024/02/07 15:05:06;;;;;;;14.77;6.70;;;11.90;99.80;;;;;;6191760;23;20027;-78
2024/02/07 15:07:36;;;;;;;11.02;5.40;;;12.00;99.90;;;;;;6192698;23;20438;-77
2024/02/07 15:10:07;;;;;;;13.20;6.25;;;11.90;99.90;;;;;;6142992;23;20047;-79
2024/02/07 15:12:37;;;;;;;22.58;7.20;;;11.80;99.90;;;;;;6194122;23;20020;-78
2024/02/07 15:15:07;;;;;;;12.70;6.50;;;11.90;99.50;;;;;;6157808;23;20033;-77
2024/02/07 15:17:38;;;;;;;13.23;5.35;;;11.80;99.40;;;;;;6159439;23;20087;-77
2024/02/07 15:20:12;;;;;;;13.30;6.70;;;11.70;99.90;;;;;;6160223;23;20025;-78
2024/02/07 15:22:41;;;;;;;14.85;6.78;;;11.70;99.90;;;;;;6130446;23;20029;-78
2024/02/07 15:25:11;;;;;;;14.43;7.05;;;11.50;99.90;;;;;;6161248;23;20033;-77
2024/02/07 15:27:47;;;;;;;16.10;7.35;;;11.50;99.90;;;;;;6136536;23;20021;-78
2024/02/07 15:30:15;;;;;;;26.15;10.35;;;11.40;99.90;;;;;;6136196;23;20025;-78
2024/02/07 15:32:46;;;;;;;27.05;11.45;;;11.30;99.90;;;;;;6134425;23;20076;-77
2024/02/07 15:35:21;;;;;;;19.45;9.05;;;11.20;99.90;;;;;;6131157;23;20037;-77
2024/02/07 15:37:51;;;;;;;31.15;14.20;;;11.10;99.90;;;;;;6157393;23;20415;-78
2024/02/07 15:40:22;;;;;;;39.05;18.45;;;11.00;99.90;;;;;;6157971;23;20025;-78
2024/02/07 15:42:53;;;;;;;36.97;17.05;;;10.90;99.90;;;;;;6133389;23;20029;-77
2024/02/07 15:45:29;;;;;;;343.20;142.73;;;10.90;99.90;;;;;;6132085;23;20153;-78
2024/02/07 15:47:58;;;;;;;67.47;32.38;;;10.80;99.90;;;;;;6157338;23;20025;-77
2024/02/07 15:50:29;;;;;;;100.00;45.72;;;10.70;99.90;;;;;;6132912;23;20064;-77
2024/02/07 15:53:04;;;;;;;60.08;29.67;;;10.60;99.90;;;;;;6167651;23;20020;-77